Cleveland, Ohio
Traffic Map
Current Weather Conditions
Cleveland, Ohio
Broken Clouds
Broken Clouds
60°
Feels Like: 60°
Wind Chill: 60° Ceiling: 9500
Heat Index: 60° Visibility: 10mi
Dew Point: 57° Wind: 10mph
Humidity: 90% Direction: 300° (WNW)
Pressure: 29.86in Gusts: 20mph
Raw Report DataKBKL 010100Z 30009G17KT 10SM FEW006 SCT055 BKN095 16/14 A2986 RMK AO2 LTG DSNT W-NE T01560139 $
Traffic Incident Summary
Active as of:
Severity:
Category:
InformationThere was an issue retrieving the traffic information for this location. Please try a different location or try again shortly.
Advertisements
Track Severe Weather on mobile